• Join FlightAware (Why Join?)
  • Login
  • US Flag 
12:40AM EDT


 

Airport Tracker/Info


-or-


 

Live Flight TrackerFlight Track Log ✈ VH-VQB ✈ 04-Jun-2013 ✈ YMAV / AVV - YSSY / SYD

Flight Track Log - Related Links

Times and Time Zones

All times are in EDT time to prevent confusion due to time zone crossing. See the VH-VQB flight status page for this flight to view local times or setup timezone preferences in your user account.

Time Position Orientation Groundspeed Altitude Reporting Facility
EDT Latitude Longitude Course Direction KTS MPH feet Rate Location/Type
04:13PM -38.0280 144.4720 348° North 2 2  Level FlightAware
04:20PM -38.0270 144.4710 360° North 6 7 120 Level FlightAware
04:21PM -38.0280 144.4690 238° Southwest 10 12 600 Level FlightAware
04:21PM -38.0370 144.4680 185° South 120 138 960 Level FlightAware
04:22PM -38.0450 144.4670 186° South 145 167 1,620 Level FlightAware
04:22PM -38.0650 144.4630 189° South 151 174 1,100 1,860 Climbing FlightAware
04:22PM -38.0720 144.4620 186° South 165 190 1,300 1,800 Climbing FlightAware
04:23PM -38.0910 144.4820 169° South 197 227 2,400 2,340 Climbing FlightAware
04:23PM -38.0850 144.5030 70° East 197 227 3,300 2,220 Climbing FlightAware
04:23PM -38.0760 144.5140 44° Northeast 214 246 3,700 1,440 Climbing FlightAware
04:24PM -38.0680 144.5260 50° Northeast 234 269 3,900 1,680 Climbing FlightAware
04:24PM -38.0420 144.5690 52° Northeast 288 331 5,000 1,860 Climbing FlightAware
04:25PM -38.0230 144.6010 53° Northeast 318 366 5,800 2,400 Climbing FlightAware
04:25PM -38.0120 144.6180 51° Northeast 324 373 6,400 3,720 Climbing FlightAware
04:25PM -37.9720 144.6770 49° Northeast 327 376 8,900 3,840 Climbing FlightAware
04:26PM -37.9485 144.7109 49° Northeast 330 380 10,400 2,820 Climbing Aus ATC (RADAR)
04:26PM -37.9060 144.7750 49° Northeast 354 407 12,000 2,700 Climbing FlightAware
04:27PM -37.8640 144.8380 50° Northeast 354 407 14,200 2,700 Climbing FlightAware
04:28PM -37.8190 144.9050 50° Northeast 374 430 15,600 2,220 Climbing FlightAware
04:28PM -37.7730 144.9730 49° Northeast 386 444 17,200 2,700 Climbing FlightAware
04:29PM -37.7356 145.0294 49° Northeast 390 449 18,900 2,520 Climbing Aus ATC (RADAR)
04:29PM -37.7270 145.0420 49° Northeast 391 450 18,900 2,220 Level FlightAware
04:30PM -37.6450 145.1640 50° Northeast 394 453 21,800 2,160 Climbing FlightAware
04:32PM -37.5268 145.3388 50° Northeast 410 472 25,000 1,740 Climbing Aus ATC (RADAR)
04:33PM -37.4966 145.3837 50° Northeast  Level FlightAware Approximate
04:34PM -37.4040 145.5210 50° Northeast 424 488 27,500  Level FlightAware
04:34PM -37.3753 145.5621 50° Northeast 425 489 28,300 1,620 Climbing Aus ATC (RADAR)
04:34PM -37.3520 145.5960 50° Northeast 426 490 28,600 1,500 Climbing FlightAware
04:35PM -37.3044 145.6654 50° Northeast 428 493 29,700 1,200 Climbing Aus ATC (RADAR)
04:35PM -37.3030 145.6690 50° Northeast 432 497 29,400 960 Descending FlightAware
04:36PM -37.2440 145.7540 49° Northeast 436 502 30,500 1,800 Climbing FlightAware
04:36PM -37.2129 145.7996 49° Northeast 436 502 31,400 1,740 Climbing Aus ATC (RADAR)
04:36PM -37.1900 145.8330 49° Northeast 431 496 31,700 900 Climbing FlightAware
04:37PM -37.1380 145.9090 49° Northeast 439 505 32,300 900 Climbing FlightAware
04:38PM -37.0760 145.9980 49° Northeast 446 513 33,000 1,320 Climbing FlightAware
04:38PM -37.0336 146.0596 49° Northeast 446 513 34,000 1,020 Climbing Aus ATC (RADAR)
04:38PM -37.0220 146.0760 49° Northeast 450 518 33,700 660 Descending FlightAware
04:39PM -36.9600 146.1650 49° Northeast 450 518 34,600 1,080 Climbing FlightAware
04:40PM -36.9130 146.2340 50° Northeast 451 519 35,200 840 Climbing FlightAware
04:41PM -36.8440 146.3320 49° Northeast 460 529 35,800 1,080 Climbing FlightAware
04:41PM -36.8200 146.3644 49° Northeast 459 528 36,400 600 Climbing Aus ATC (RADAR)
04:41PM -36.7870 146.4130 49° Northeast 466 536 36,200 600 Descending FlightAware
04:41PM -36.7635 146.4454 49° Northeast 465 535 36,800 720 Climbing Aus ATC (RADAR)
04:42PM -36.7310 146.4940 49° Northeast 472 543 36,700 600 Descending FlightAware
04:42PM -36.6777 146.5683 49° Northeast 473 544 37,400 360 Climbing Aus ATC (RADAR)
04:43PM -36.6660 146.5870 49° Northeast 472 543 37,000 -480 Descending FlightAware
04:43PM -36.6020 146.6770 48° Northeast 472 543 37,000  Level FlightAware
04:44PM -36.5440 146.7590 49° Northeast 475 547 37,000  Level FlightAware
04:45PM -36.4850 146.8430 49° Northeast 476 548 37,000 300 Level FlightAware
04:45PM -36.4319 146.9153 49° Northeast 475 547 37,400  Climbing Aus ATC (RADAR)
04:45PM -36.4200 146.9350 49° Northeast 478 550 37,000 -540 Descending FlightAware
04:46PM -36.3680 147.0070 48° Northeast 479 551 37,000  Level FlightAware
04:47PM -36.3030 147.0990 49° Northeast 480 552 37,000  Level FlightAware
04:47PM -36.2430 147.1820 48° Northeast 480 552 37,000  Level FlightAware
04:48PM -36.1840 147.2640 48° Northeast 480 552 37,000 300 Level FlightAware
04:49PM -36.1306 147.3356 48° Northeast 477 549 37,400  Climbing Aus ATC (RADAR)
04:49PM -36.1200 147.3530 48° Northeast 482 555 37,000 -480 Descending FlightAware
04:50PM -36.0580 147.4380 48° Northeast 483 556 37,000 300 Level FlightAware
04:50PM -36.0049 147.5104 48° Northeast 479 551 37,400  Climbing Aus ATC (RADAR)
04:50PM -35.9990 147.5200 48° Northeast 484 557 37,000 -540 Descending FlightAware
04:51PM -35.9400 147.6020 48° Northeast 484 557 37,000  Level FlightAware
04:52PM -35.8720 147.6960 48° Northeast 485 558 37,000 300 Level FlightAware
04:52PM -35.8184 147.7672 48° Northeast 482 555 37,400  Climbing Aus ATC (RADAR)
04:52PM -35.8140 147.7760 48° Northeast 484 557 37,000 -480 Descending FlightAware
04:53PM -35.7460 147.8690 48° Northeast 485 558 37,000 360 Level FlightAware
04:53PM -35.7143 147.9111 48° Northeast 480 552 37,400  Climbing Aus ATC (RADAR)
04:54PM -35.6730 147.9680 48° Northeast 485 558 37,000  Descending FlightAware
04:54PM -35.6094 148.0542 48° Northeast 481 554 37,400  Climbing Aus ATC (RADAR)
04:55PM -35.5960 148.0730 48° Northeast 485 558 37,000 -480 Descending FlightAware
04:55PM -35.5370 148.1540 48° Northeast 485 558 37,000 300 Level FlightAware
04:56PM -35.4740 148.2377 48° Northeast 481 554 37,400  Climbing Aus ATC (RADAR)
04:56PM -35.4680 148.2470 48° Northeast 485 558 37,000  Descending FlightAware
04:57PM -35.4150 148.3198 48° Northeast 480 552 37,400  Climbing Aus ATC (RADAR)
04:57PM -35.4100 148.3300 48° Northeast 485 558 37,000 -480 Descending FlightAware
04:58PM -35.3480 148.4290 53° Northeast 485 558 37,000  Level FlightAware
04:58PM -35.2930 148.5170 53° Northeast 485 558 37,000  Level FlightAware
04:59PM -35.2390 148.6040 53° Northeast 468 539 37,000 360 Level FlightAware
04:59PM -35.2068 148.6538 53° Northeast 461 531 37,400  Climbing Aus ATC (RADAR)
05:00PM -35.1900 148.6810 53° Northeast 464 534 37,000  Descending FlightAware
05:00PM -35.1415 148.7578 53° Northeast 459 528 37,400  Climbing Aus ATC (RADAR)
05:00PM -35.1270 148.7810 53° Northeast 465 535 37,000  Descending FlightAware
05:01PM -35.0758 148.8616 53° Northeast 460 529 37,400  Climbing Aus ATC (RADAR)
05:01PM -35.0750 148.8640 53° Northeast 465 535 37,000  Descending FlightAware
05:02PM -35.0232 148.9446 53° Northeast 461 531 37,400  Climbing Aus ATC (RADAR)
05:02PM -35.0150 148.9570 53° Northeast 465 535 37,000 -780 Descending FlightAware
05:02PM -34.9630 149.0390 52° Northeast 466 536 36,800 -1,320 Descending FlightAware
05:03PM -34.9100 149.1220 52° Northeast 469 540 35,300 -1,440 Descending FlightAware
05:04PM -34.8650 149.1930 52° Northeast 449 517 34,800 -1,020 Descending FlightAware
05:04PM -34.8085 149.2811 52° Northeast 431 496 34,000 -2,160 Descending Aus ATC (RADAR)
05:04PM -34.7990 149.2960 52° Northeast 432 497 33,300 -2,460 Descending FlightAware
05:05PM -34.7470 149.3780 52° Northeast 423 487 31,900 -1,620 Descending FlightAware
05:05PM -34.7267 149.4159 52° Northeast 413 475 31,700 -1,320 Descending Aus ATC (RADAR)
05:06PM -34.7138 149.4474 63° Northeast 409 471 31,200 -3,000 Descending Aus ATC (RADAR)
05:06PM -34.7090 149.4600 63° Northeast 414 476 30,600 -2,280 Descending FlightAware
05:06PM -34.6786 149.5288 63° Northeast 398 458 29,700 -2,220 Descending Aus ATC (RADAR)
05:07PM -34.6730 149.5420 63° Northeast 406 467 29,100 -2,760 Descending FlightAware
05:07PM -34.6360 149.6270 62° Northeast 404 465 27,400 -2,220 Descending FlightAware
05:08PM -34.5960 149.7160 61° Northeast 397 457 25,900 -2,040 Descending FlightAware
05:09PM -34.5610 149.7960 62° Northeast 391 450 24,600 -1,560 Descending FlightAware
05:09PM -34.5485 149.8243 62° Northeast 380 437 24,500 -1,860 Descending Aus ATC (RADAR)
05:09PM -34.5230 149.8820 62° Northeast 386 444 23,200 -2,340 Descending FlightAware
05:10PM -34.4900 149.9580 62° Northeast 385 443 21,800 -1,680 Descending FlightAware
05:11PM -34.4605 150.0238 62° Northeast 372 428 21,200 -1,380 Descending Aus ATC (RADAR)
05:11PM -34.4481 150.0523 62° Northeast 371 427 20,700 -2,580 Descending Aus ATC (RADAR)
05:11PM -34.4460 150.0570 62° Northeast 379 436 20,300 -1,680 Descending FlightAware
05:12PM -34.4152 150.1263 62° Northeast 365 420 19,600 -1,860 Descending Aus ATC (RADAR)
05:12PM -34.4080 150.1420 62° Northeast 370 426 19,000 -1,920 Descending FlightAware
05:12PM -34.3750 150.2160 62° Northeast 366 421 18,000 -1,380 Descending FlightAware
05:13PM -34.3430 150.2889 62° Northeast 356 410 17,200 -1,680 Descending Aus ATC (RADAR)
05:13PM -34.3410 150.2940 62° Northeast 366 421 16,800 -1,920 Descending FlightAware
05:14PM -34.3090 150.3650 61° Northeast 358 412 15,800 -960 Descending FlightAware
05:14PM -34.2952 150.3952 61° Northeast 347 399 15,900 -1,200 Climbing Aus ATC (RADAR)
05:14PM -34.2780 150.4340 61° Northeast 338 389 15,000 -1,800 Descending FlightAware
05:15PM -34.2430 150.5110 61° Northeast 334 384 13,800 -1,560 Descending FlightAware
05:16PM -34.2230 150.5560 62° Northeast 321 369 13,000 -1,560 Descending FlightAware
05:17PM -34.1830 150.6450 62° Northeast 315 362 11,600 -1,620 Descending FlightAware
05:17PM -34.1530 150.7130 62° Northeast 311 358 10,400 -1,620 Descending FlightAware
05:18PM -34.1320 150.7580 61° Northeast 298 343 9,600 -1,860 Descending FlightAware
05:18PM -34.1160 150.7950 62° Northeast 299 344 8,700 -2,040 Descending FlightAware
05:19PM -34.0950 150.8410 61° Northeast 304 350 7,700 -1,800 Descending FlightAware
05:19PM -34.0890 150.8550 63° Northeast 300 345 7,500 -780 Descending FlightAware
05:19PM -34.0700 150.8970 61° Northeast 286 329 7,200 -780 Descending FlightAware
05:20PM -34.0530 150.9350 62° Northeast 284 327 6,800 -900 Descending FlightAware
05:20PM -34.0330 150.9780 61° Northeast 280 322 6,400 -840 Descending FlightAware
05:21PM -34.0070 151.0120 47° Northeast 289 333 6,000 -840 Descending FlightAware
05:21PM -33.9880 151.0160 10° North 275 316 5,800 -480 Descending FlightAware
05:22PM -33.9560 151.0130 356° North 261 300 5,700 -120 Descending FlightAware
05:22PM -33.9210 151.0080 353° North 257 296 5,700 -240 Level FlightAware
05:23PM -33.8910 151.0040 354° North 247 284 5,500 -900 Descending FlightAware
05:23PM -33.8570 150.9990 353° North 245 282 4,900 -1,140 Descending FlightAware
05:24PM -33.8220 150.9930 352° North 247 284 4,400 -1,080 Descending FlightAware
05:24PM -33.7930 150.9880 352° North 245 282 3,900 -780 Descending FlightAware
05:24PM -33.7600 150.9820 351° North 248 285 3,700 -540 Descending FlightAware
05:25PM -33.7290 150.9950 19° North 234 269 3,400 -600 Descending FlightAware
05:25PM -33.7240 151.0050 59° Northeast 222 255 3,300 -420 Descending FlightAware
05:25PM -33.7114 151.0309 59° Northeast 219 252 3,200 -900 Descending Aus ATC (RADAR)
05:26PM -33.7110 151.0320 59° Northeast 222 255 2,900 -1,380 Descending FlightAware
05:26PM -33.7030 151.0520 64° Northeast 220 253 2,700 -300 Descending FlightAware
05:26PM -33.7090 151.0810 104° East 215 247 2,700  Level FlightAware
05:27PM -33.7290 151.1020 139° Southeast 213 245 2,700 300 Level FlightAware
05:27PM -33.7480 151.1201 139° Southeast 192 221 3,000  Climbing Aus ATC (RADAR)
05:27PM -33.7620 151.1270 139° Southeast 175 201 2,700 -420 Descending FlightAware
05:28PM -33.7780 151.1320 165° South 183 211 2,700 -300 Level FlightAware
05:28PM -33.7920 151.1360 167° South 172 198 2,500 -960 Descending FlightAware
05:29PM -33.8140 151.1420 167° South 167 192 2,000 -960 Descending FlightAware
05:29PM -33.8350 151.1470 169° South 163 188 1,600 -840 Descending FlightAware
05:30PM -33.8570 151.1530 167° South 142 163 1,200 -900 Descending FlightAware
05:30PM -33.8680 151.1560 167° South 130 150 900 -660 Descending FlightAware
05:30PM -33.8780 151.1580 171° South 125 144 800 -660 Descending FlightAware
05:31PM -33.8950 151.1630 166° South 124 143 400 -300 Descending FlightAware
05:31PM -33.9059 151.1656 166° South 125 144 600 -660 Climbing Aus ATC (RADAR)
05:31PM -33.9100 151.1660 166° South 131 151 100 -2,340 Descending FlightAware
05:32PM -33.9390 151.1740 167° South 110 127 -180 Descending FlightAware
05:32PM -33.9440 151.1750 171° South 49 56  Level FlightAware
05:33PM -33.9450 151.1780 112° Southeast 11 13  Level FlightAware